sensor_id;sensor_type;location;lat;lon;timestamp;temperature;humidity
63013;DHT22;62113;45.624;11.700;2024-02-04T00:00:26;9.30;57.20
63013;DHT22;62113;45.624;11.700;2024-02-04T00:02:52;9.30;57.20
63013;DHT22;62113;45.624;11.700;2024-02-04T00:05:18;9.30;57.20
63013;DHT22;62113;45.624;11.700;2024-02-04T00:07:44;9.20;57.20
63013;DHT22;62113;45.624;11.700;2024-02-04T00:10:10;9.20;57.30
63013;DHT22;62113;45.624;11.700;2024-02-04T00:12:36;9.20;57.30
63013;DHT22;62113;45.624;11.700;2024-02-04T00:15:02;9.20;57.40
63013;DHT22;62113;45.624;11.700;2024-02-04T00:17:30;9.20;57.40
63013;DHT22;62113;45.624;11.700;2024-02-04T00:20:01;9.20;57.30
63013;DHT22;62113;45.624;11.700;2024-02-04T00:22:28;9.20;57.40
63013;DHT22;62113;45.624;11.700;2024-02-04T00:24:53;9.20;57.40
63013;DHT22;62113;45.624;11.700;2024-02-04T00:27:19;9.20;57.50
63013;DHT22;62113;45.624;11.700;2024-02-04T00:29:45;9.10;57.50
63013;DHT22;62113;45.624;11.700;2024-02-04T00:32:11;9.10;57.60
63013;DHT22;62113;45.624;11.700;2024-02-04T00:34:37;9.10;57.60
63013;DHT22;62113;45.624;11.700;2024-02-04T00:37:02;9.10;58.30
63013;DHT22;62113;45.624;11.700;2024-02-04T00:39:28;9.10;57.70
63013;DHT22;62113;45.624;11.700;2024-02-04T00:41:54;9.10;57.70
63013;DHT22;62113;45.624;11.700;2024-02-04T00:44:19;9.00;57.80
63013;DHT22;62113;45.624;11.700;2024-02-04T00:46:45;9.00;57.90
63013;DHT22;62113;45.624;11.700;2024-02-04T00:49:10;9.00;58.00
63013;DHT22;62113;45.624;11.700;2024-02-04T00:51:36;9.10;57.90
63013;DHT22;62113;45.624;11.700;2024-02-04T00:54:02;9.00;58.00
63013;DHT22;62113;45.624;11.700;2024-02-04T00:56:27;9.10;58.00
63013;DHT22;62113;45.624;11.700;2024-02-04T00:58:53;9.10;58.00
63013;DHT22;62113;45.624;11.700;2024-02-04T01:01:18;9.00;58.10
63013;DHT22;62113;45.624;11.700;2024-02-04T01:03:47;9.10;58.10
63013;DHT22;62113;45.624;11.700;2024-02-04T01:06:13;9.10;58.20
63013;DHT22;62113;45.624;11.700;2024-02-04T01:08:39;9.00;58.20
63013;DHT22;62113;45.624;11.700;2024-02-04T01:11:05;9.10;58.10
63013;DHT22;62113;45.624;11.700;2024-02-04T01:13:31;9.10;58.10
63013;DHT22;62113;45.624;11.700;2024-02-04T01:15:57;9.10;58.10
63013;DHT22;62113;45.624;11.700;2024-02-04T01:18:22;9.00;58.10
63013;DHT22;62113;45.624;11.700;2024-02-04T01:20:48;9.00;58.10
63013;DHT22;62113;45.624;11.700;2024-02-04T01:23:14;9.10;58.10
63013;DHT22;62113;45.624;11.700;2024-02-04T01:25:43;9.10;58.10
63013;DHT22;62113;45.624;11.700;2024-02-04T01:28:08;9.10;58.10
63013;DHT22;62113;45.624;11.700;2024-02-04T01:30:34;9.10;58.20
63013;DHT22;62113;45.624;11.700;2024-02-04T01:32:59;9.10;58.20
63013;DHT22;62113;45.624;11.700;2024-02-04T01:35:25;9.00;58.20
63013;DHT22;62113;45.624;11.700;2024-02-04T01:37:51;9.10;58.20
63013;DHT22;62113;45.624;11.700;2024-02-04T01:40:16;9.00;58.10
63013;DHT22;62113;45.624;11.700;2024-02-04T01:42:42;9.00;58.20
63013;DHT22;62113;45.624;11.700;2024-02-04T01:45:08;8.90;58.30
63013;DHT22;62113;45.624;11.700;2024-02-04T01:47:34;8.90;58.30
63013;DHT22;62113;45.624;11.700;2024-02-04T01:50:00;9.00;58.30
63013;DHT22;62113;45.624;11.700;2024-02-04T01:52:27;9.00;58.40
63013;DHT22;62113;45.624;11.700;2024-02-04T01:54:53;9.00;58.40
63013;DHT22;62113;45.624;11.700;2024-02-04T01:57:19;9.00;58.40
63013;DHT22;62113;45.624;11.700;2024-02-04T01:59:45;9.00;58.30
63013;DHT22;62113;45.624;11.700;2024-02-04T02:02:12;9.00;58.20
63013;DHT22;62113;45.624;11.700;2024-02-04T02:04:38;9.00;58.20
63013;DHT22;62113;45.624;11.700;2024-02-04T02:07:04;8.90;58.20
63013;DHT22;62113;45.624;11.700;2024-02-04T02:09:33;8.90;58.20
63013;DHT22;62113;45.624;11.700;2024-02-04T02:12:09;8.90;58.20
63013;DHT22;62113;45.624;11.700;2024-02-04T02:14:41;8.90;58.30
63013;DHT22;62113;45.624;11.700;2024-02-04T02:17:13;8.80;58.30
63013;DHT22;62113;45.624;11.700;2024-02-04T02:19:59;8.80;58.20
63013;DHT22;62113;45.624;11.700;2024-02-04T02:22:56;8.80;58.30
63013;DHT22;62113;45.624;11.700;2024-02-04T02:25:27;8.70;58.40
63013;DHT22;62113;45.624;11.700;2024-02-04T02:27:52;8.70;58.40
63013;DHT22;62113;45.624;11.700;2024-02-04T02:30:18;8.70;58.40
63013;DHT22;62113;45.624;11.700;2024-02-04T02:32:44;8.70;58.50
63013;DHT22;62113;45.624;11.700;2024-02-04T02:35:17;8.70;58.50
63013;DHT22;62113;45.624;11.700;2024-02-04T02:40:10;8.60;58.30
63013;DHT22;62113;45.624;11.700;2024-02-04T02:42:38;8.60;58.30
63013;DHT22;62113;45.624;11.700;2024-02-04T02:45:08;8.50;58.40
63013;DHT22;62113;45.624;11.700;2024-02-04T02:47:35;8.50;58.40
63013;DHT22;62113;45.624;11.700;2024-02-04T02:50:01;8.50;58.40
63013;DHT22;62113;45.624;11.700;2024-02-04T02:52:27;8.40;58.50
63013;DHT22;62113;45.624;11.700;2024-02-04T02:54:52;8.40;58.50
63013;DHT22;62113;45.624;11.700;2024-02-04T02:57:18;8.40;58.60
63013;DHT22;62113;45.624;11.700;2024-02-04T02:59:44;8.40;58.50
63013;DHT22;62113;45.624;11.700;2024-02-04T03:02:09;8.30;58.50
63013;DHT22;62113;45.624;11.700;2024-02-04T03:04:36;8.30;58.50
63013;DHT22;62113;45.624;11.700;2024-02-04T03:07:02;8.30;58.40
63013;DHT22;62113;45.624;11.700;2024-02-04T03:09:27;8.20;58.40
63013;DHT22;62113;45.624;11.700;2024-02-04T03:11:53;8.20;58.50
63013;DHT22;62113;45.624;11.700;2024-02-04T03:14:20;8.20;58.70
63013;DHT22;62113;45.624;11.700;2024-02-04T03:16:45;8.20;58.70
63013;DHT22;62113;45.624;11.700;2024-02-04T03:19:11;8.20;58.70
63013;DHT22;62113;45.624;11.700;2024-02-04T03:21:37;8.10;58.80
63013;DHT22;62113;45.624;11.700;2024-02-04T03:24:02;8.10;58.80
63013;DHT22;62113;45.624;11.700;2024-02-04T03:26:28;8.10;58.80
63013;DHT22;62113;45.624;11.700;2024-02-04T03:28:53;8.10;58.90
63013;DHT22;62113;45.624;11.700;2024-02-04T03:31:20;8.10;58.90
63013;DHT22;62113;45.624;11.700;2024-02-04T03:33:46;8.00;58.90
63013;DHT22;62113;45.624;11.700;2024-02-04T03:36:12;8.00;58.90
63013;DHT22;62113;45.624;11.700;2024-02-04T03:38:39;8.00;58.90
63013;DHT22;62113;45.624;11.700;2024-02-04T03:41:05;8.00;58.90
63013;DHT22;62113;45.624;11.700;2024-02-04T03:43:30;7.90;58.90
63013;DHT22;62113;45.624;11.700;2024-02-04T03:45:56;7.90;58.90
63013;DHT22;62113;45.624;11.700;2024-02-04T03:48:22;7.90;58.90
63013;DHT22;62113;45.624;11.700;2024-02-04T03:50:48;7.90;58.90
63013;DHT22;62113;45.624;11.700;2024-02-04T03:53:13;7.90;59.00
63013;DHT22;62113;45.624;11.700;2024-02-04T03:55:39;7.90;59.00
63013;DHT22;62113;45.624;11.700;2024-02-04T03:58:04;7.90;59.00
63013;DHT22;62113;45.624;11.700;2024-02-04T04:00:30;7.90;59.10
63013;DHT22;62113;45.624;11.700;2024-02-04T04:02:56;7.80;59.10
63013;DHT22;62113;45.624;11.700;2024-02-04T04:05:21;7.80;58.70
63013;DHT22;62113;45.624;11.700;2024-02-04T04:07:47;7.70;58.90
63013;DHT22;62113;45.624;11.700;2024-02-04T04:10:13;7.70;59.00
63013;DHT22;62113;45.624;11.700;2024-02-04T04:12:38;7.70;59.00
63013;DHT22;62113;45.624;11.700;2024-02-04T04:15:04;7.70;59.00
63013;DHT22;62113;45.624;11.700;2024-02-04T04:17:30;7.70;59.10
63013;DHT22;62113;45.624;11.700;2024-02-04T04:19:56;7.70;59.10
63013;DHT22;62113;45.624;11.700;2024-02-04T04:22:21;7.60;59.30
63013;DHT22;62113;45.624;11.700;2024-02-04T04:24:47;7.60;59.30
63013;DHT22;62113;45.624;11.700;2024-02-04T04:27:12;7.50;59.30
63013;DHT22;62113;45.624;11.700;2024-02-04T04:29:38;7.60;59.40
63013;DHT22;62113;45.624;11.700;2024-02-04T04:32:04;7.50;59.40
63013;DHT22;62113;45.624;11.700;2024-02-04T04:34:30;7.50;59.40
63013;DHT22;62113;45.624;11.700;2024-02-04T04:36:56;7.50;59.40
63013;DHT22;62113;45.624;11.700;2024-02-04T04:39:21;7.40;59.40
63013;DHT22;62113;45.624;11.700;2024-02-04T04:41:47;7.50;59.40
63013;DHT22;62113;45.624;11.700;2024-02-04T04:44:12;7.50;59.50
63013;DHT22;62113;45.624;11.700;2024-02-04T04:46:38;7.50;59.50
63013;DHT22;62113;45.624;11.700;2024-02-04T04:49:07;7.50;59.50
63013;DHT22;62113;45.624;11.700;2024-02-04T04:51:32;7.50;59.40
63013;DHT22;62113;45.624;11.700;2024-02-04T04:53:59;7.40;59.40
63013;DHT22;62113;45.624;11.700;2024-02-04T04:56:24;7.30;59.90
63013;DHT22;62113;45.624;11.700;2024-02-04T04:58:50;7.20;59.60
63013;DHT22;62113;45.624;11.700;2024-02-04T05:01:16;7.20;59.70
63013;DHT22;62113;45.624;11.700;2024-02-04T05:03:41;7.20;59.80
63013;DHT22;62113;45.624;11.700;2024-02-04T05:06:07;7.20;59.90
63013;DHT22;62113;45.624;11.700;2024-02-04T05:08:33;7.20;60.00
63013;DHT22;62113;45.624;11.700;2024-02-04T05:10:58;7.20;60.10
63013;DHT22;62113;45.624;11.700;2024-02-04T05:13:24;7.20;60.00
63013;DHT22;62113;45.624;11.700;2024-02-04T05:15:50;7.20;60.00
63013;DHT22;62113;45.624;11.700;2024-02-04T05:18:15;7.20;60.00
63013;DHT22;62113;45.624;11.700;2024-02-04T05:20:41;7.20;60.00
63013;DHT22;62113;45.624;11.700;2024-02-04T05:23:09;7.20;59.90
63013;DHT22;62113;45.624;11.700;2024-02-04T05:25:34;7.20;59.70
63013;DHT22;62113;45.624;11.700;2024-02-04T05:28:00;7.20;59.60
63013;DHT22;62113;45.624;11.700;2024-02-04T05:30:25;7.20;59.60
63013;DHT22;62113;45.624;11.700;2024-02-04T05:32:51;7.20;59.70
63013;DHT22;62113;45.624;11.700;2024-02-04T05:35:16;7.10;59.70
63013;DHT22;62113;45.624;11.700;2024-02-04T05:37:42;7.10;59.80
63013;DHT22;62113;45.624;11.700;2024-02-04T05:40:08;7.10;59.80
63013;DHT22;62113;45.624;11.700;2024-02-04T05:42:33;7.10;59.70
63013;DHT22;62113;45.624;11.700;2024-02-04T05:45:00;7.10;59.70
63013;DHT22;62113;45.624;11.700;2024-02-04T05:47:26;7.10;59.70
63013;DHT22;62113;45.624;11.700;2024-02-04T05:49:51;7.10;59.60
63013;DHT22;62113;45.624;11.700;2024-02-04T05:52:17;7.00;59.60
63013;DHT22;62113;45.624;11.700;2024-02-04T05:54:43;7.00;59.70
63013;DHT22;62113;45.624;11.700;2024-02-04T05:57:08;7.00;59.80
63013;DHT22;62113;45.624;11.700;2024-02-04T05:59:34;7.00;59.90
63013;DHT22;62113;45.624;11.700;2024-02-04T06:02:00;6.90;59.90
63013;DHT22;62113;45.624;11.700;2024-02-04T06:04:26;7.00;59.90
63013;DHT22;62113;45.624;11.700;2024-02-04T06:06:51;7.00;60.00
63013;DHT22;62113;45.624;11.700;2024-02-04T06:09:17;7.00;60.00
63013;DHT22;62113;45.624;11.700;2024-02-04T06:11:45;7.00;59.90
63013;DHT22;62113;45.624;11.700;2024-02-04T06:14:12;7.00;59.80
63013;DHT22;62113;45.624;11.700;2024-02-04T06:16:37;7.00;59.80
63013;DHT22;62113;45.624;11.700;2024-02-04T06:19:03;6.90;59.90
63013;DHT22;62113;45.624;11.700;2024-02-04T06:21:29;6.90;59.90
63013;DHT22;62113;45.624;11.700;2024-02-04T06:23:54;6.90;60.00
63013;DHT22;62113;45.624;11.700;2024-02-04T06:26:20;7.00;60.10
63013;DHT22;62113;45.624;11.700;2024-02-04T06:28:45;7.00;60.10
63013;DHT22;62113;45.624;11.700;2024-02-04T06:31:14;7.00;60.10
63013;DHT22;62113;45.624;11.700;2024-02-04T06:33:39;7.00;60.00
63013;DHT22;62113;45.624;11.700;2024-02-04T06:36:11;7.00;59.80
63013;DHT22;62113;45.624;11.700;2024-02-04T06:38:37;7.00;59.80
63013;DHT22;62113;45.624;11.700;2024-02-04T06:41:03;7.00;59.90
63013;DHT22;62113;45.624;11.700;2024-02-04T06:43:28;6.90;59.90
63013;DHT22;62113;45.624;11.700;2024-02-04T06:45:54;6.90;60.00
63013;DHT22;62113;45.624;11.700;2024-02-04T06:48:19;7.00;60.10
63013;DHT22;62113;45.624;11.700;2024-02-04T06:50:45;7.00;60.10
63013;DHT22;62113;45.624;11.700;2024-02-04T06:53:13;7.10;60.10
63013;DHT22;62113;45.624;11.700;2024-02-04T06:55:39;7.20;60.00
63013;DHT22;62113;45.624;11.700;2024-02-04T06:58:04;7.20;59.80
63013;DHT22;62113;45.624;11.700;2024-02-04T07:00:30;7.20;59.80
63013;DHT22;62113;45.624;11.700;2024-02-04T07:02:55;7.30;59.60
63013;DHT22;62113;45.624;11.700;2024-02-04T07:05:22;7.40;59.50
63013;DHT22;62113;45.624;11.700;2024-02-04T07:07:48;7.40;59.40
63013;DHT22;62113;45.624;11.700;2024-02-04T07:10:15;7.50;59.30
63013;DHT22;62113;45.624;11.700;2024-02-04T07:12:40;7.50;59.30
63013;DHT22;62113;45.624;11.700;2024-02-04T07:15:06;7.60;59.30
63013;DHT22;62113;45.624;11.700;2024-02-04T07:17:34;7.60;59.20
63013;DHT22;62113;45.624;11.700;2024-02-04T07:20:00;7.70;59.20
63013;DHT22;62113;45.624;11.700;2024-02-04T07:22:26;7.70;59.30
63013;DHT22;62113;45.624;11.700;2024-02-04T07:24:52;7.80;59.20
63013;DHT22;62113;45.624;11.700;2024-02-04T07:27:17;8.00;59.10
63013;DHT22;62113;45.624;11.700;2024-02-04T07:29:43;8.00;59.00
63013;DHT22;62113;45.624;11.700;2024-02-04T07:32:08;8.20;59.10
63013;DHT22;62113;45.624;11.700;2024-02-04T07:34:34;8.20;59.00
63013;DHT22;62113;45.624;11.700;2024-02-04T07:37:00;8.30;58.90
63013;DHT22;62113;45.624;11.700;2024-02-04T07:39:25;8.40;58.80
63013;DHT22;62113;45.624;11.700;2024-02-04T07:41:51;8.50;58.70
63013;DHT22;62113;45.624;11.700;2024-02-04T07:44:19;8.50;58.50
63013;DHT22;62113;45.624;11.700;2024-02-04T07:46:44;8.60;58.40
63013;DHT22;62113;45.624;11.700;2024-02-04T07:49:10;8.70;58.30
63013;DHT22;62113;45.624;11.700;2024-02-04T07:51:36;8.70;58.10
63013;DHT22;62113;45.624;11.700;2024-02-04T07:54:03;8.80;58.10
63013;DHT22;62113;45.624;11.700;2024-02-04T07:56:29;8.80;58.20
63013;DHT22;62113;45.624;11.700;2024-02-04T07:58:55;9.00;58.20
63013;DHT22;62113;45.624;11.700;2024-02-04T08:01:20;9.10;58.10
63013;DHT22;62113;45.624;11.700;2024-02-04T08:03:46;9.20;58.10
63013;DHT22;62113;45.624;11.700;2024-02-04T08:06:12;9.30;58.30
63013;DHT22;62113;45.624;11.700;2024-02-04T08:08:38;9.50;58.20
63013;DHT22;62113;45.624;11.700;2024-02-04T08:11:04;9.70;57.90
63013;DHT22;62113;45.624;11.700;2024-02-04T08:13:29;9.80;57.60
63013;DHT22;62113;45.624;11.700;2024-02-04T08:15:55;9.90;57.30
63013;DHT22;62113;45.624;11.700;2024-02-04T08:18:20;10.00;57.40
63013;DHT22;62113;45.624;11.700;2024-02-04T08:20:46;10.10;57.30
63013;DHT22;62113;45.624;11.700;2024-02-04T08:23:12;10.20;57.10
63013;DHT22;62113;45.624;11.700;2024-02-04T08:25:37;10.30;57.20
63013;DHT22;62113;45.624;11.700;2024-02-04T08:28:03;10.40;57.10
63013;DHT22;62113;45.624;11.700;2024-02-04T08:30:29;10.50;56.70
63013;DHT22;62113;45.624;11.700;2024-02-04T08:32:55;10.60;56.70
63013;DHT22;62113;45.624;11.700;2024-02-04T08:35:20;10.70;56.50
63013;DHT22;62113;45.624;11.700;2024-02-04T08:37:46;10.80;56.30
63013;DHT22;62113;45.624;11.700;2024-02-04T08:40:13;10.80;56.20
63013;DHT22;62113;45.624;11.700;2024-02-04T08:42:38;10.90;55.80
63013;DHT22;62113;45.624;11.700;2024-02-04T08:45:04;10.90;55.90
63013;DHT22;62113;45.624;11.700;2024-02-04T08:47:30;10.90;55.50
63013;DHT22;62113;45.624;11.700;2024-02-04T08:49:56;10.80;55.30
63013;DHT22;62113;45.624;11.700;2024-02-04T08:52:22;10.80;55.60
63013;DHT22;62113;45.624;11.700;2024-02-04T08:54:50;10.80;55.80
63013;DHT22;62113;45.624;11.700;2024-02-04T08:57:15;10.80;55.80
63013;DHT22;62113;45.624;11.700;2024-02-04T08:59:42;10.80;55.90
63013;DHT22;62113;45.624;11.700;2024-02-04T09:02:07;10.90;56.10
63013;DHT22;62113;45.624;11.700;2024-02-04T09:04:33;10.90;56.20
63013;DHT22;62113;45.624;11.700;2024-02-04T09:07:06;11.00;56.60
63013;DHT22;62113;45.624;11.700;2024-02-04T09:09:32;11.20;56.90
63013;DHT22;62113;45.624;11.700;2024-02-04T09:11:57;11.40;56.80
63013;DHT22;62113;45.624;11.700;2024-02-04T09:14:23;11.70;55.50
63013;DHT22;62113;45.624;11.700;2024-02-04T09:16:48;12.00;54.50
63013;DHT22;62113;45.624;11.700;2024-02-04T09:19:14;12.20;53.30
63013;DHT22;62113;45.624;11.700;2024-02-04T09:21:40;12.30;54.10
63013;DHT22;62113;45.624;11.700;2024-02-04T09:24:05;12.50;53.60
63013;DHT22;62113;45.624;11.700;2024-02-04T09:26:31;13.00;53.50
63013;DHT22;62113;45.624;11.700;2024-02-04T09:28:57;13.70;53.20
63013;DHT22;62113;45.624;11.700;2024-02-04T09:31:22;14.40;51.70
63013;DHT22;62113;45.624;11.700;2024-02-04T09:33:48;15.20;51.20
63013;DHT22;62113;45.624;11.700;2024-02-04T09:36:13;15.60;51.30
63013;DHT22;62113;45.624;11.700;2024-02-04T09:38:40;15.90;48.00
63013;DHT22;62113;45.624;11.700;2024-02-04T09:41:05;16.20;46.50
63013;DHT22;62113;45.624;11.700;2024-02-04T09:43:35;16.70;48.50
63013;DHT22;62113;45.624;11.700;2024-02-04T09:46:01;17.00;46.10
63013;DHT22;62113;45.624;11.700;2024-02-04T09:48:30;17.20;47.40
63013;DHT22;62113;45.624;11.700;2024-02-04T09:50:57;17.10;44.60
63013;DHT22;62113;45.624;11.700;2024-02-04T09:53:32;17.00;46.00
63013;DHT22;62113;45.624;11.700;2024-02-04T09:56:02;16.90;45.40
63013;DHT22;62113;45.624;11.700;2024-02-04T09:58:28;16.60;45.30
63013;DHT22;62113;45.624;11.700;2024-02-04T10:00:54;16.30;44.80
63013;DHT22;62113;45.624;11.700;2024-02-04T10:03:19;16.10;46.50
63013;DHT22;62113;45.624;11.700;2024-02-04T10:05:46;15.80;47.40
63013;DHT22;62113;45.624;11.700;2024-02-04T10:08:13;15.70;47.80
63013;DHT22;62113;45.624;11.700;2024-02-04T10:10:39;15.60;48.10
63013;DHT22;62113;45.624;11.700;2024-02-04T10:13:07;15.50;47.50
63013;DHT22;62113;45.624;11.700;2024-02-04T10:15:33;15.50;48.30
63013;DHT22;62113;45.624;11.700;2024-02-04T10:17:59;15.50;48.00
63013;DHT22;62113;45.624;11.700;2024-02-04T10:20:24;15.50;49.40
63013;DHT22;62113;45.624;11.700;2024-02-04T10:22:50;15.60;48.50
63013;DHT22;62113;45.624;11.700;2024-02-04T10:25:16;15.70;48.20
63013;DHT22;62113;45.624;11.700;2024-02-04T10:27:42;15.70;48.70
63013;DHT22;62113;45.624;11.700;2024-02-04T10:30:08;15.70;48.70
63013;DHT22;62113;45.624;11.700;2024-02-04T10:32:34;15.80;48.80
63013;DHT22;62113;45.624;11.700;2024-02-04T10:35:00;15.90;48.80
63013;DHT22;62113;45.624;11.700;2024-02-04T10:37:27;16.00;48.30
63013;DHT22;62113;45.624;11.700;2024-02-04T10:39:52;16.00;47.90
63013;DHT22;62113;45.624;11.700;2024-02-04T10:42:24;16.00;47.60
63013;DHT22;62113;45.624;11.700;2024-02-04T10:44:51;16.00;47.20
63013;DHT22;62113;45.624;11.700;2024-02-04T10:47:22;16.20;47.70
63013;DHT22;62113;45.624;11.700;2024-02-04T10:49:52;16.20;47.40
63013;DHT22;62113;45.624;11.700;2024-02-04T10:52:22;16.20;47.20
63013;DHT22;62113;45.624;11.700;2024-02-04T10:54:49;16.10;46.80
63013;DHT22;62113;45.624;11.700;2024-02-04T10:57:20;16.10;46.30
63013;DHT22;62113;45.624;11.700;2024-02-04T10:59:49;16.10;46.70
63013;DHT22;62113;45.624;11.700;2024-02-04T11:02:16;16.10;46.90
63013;DHT22;62113;45.624;11.700;2024-02-04T11:04:43;16.10;46.10
63013;DHT22;62113;45.624;11.700;2024-02-04T11:07:12;16.10;46.80
63013;DHT22;62113;45.624;11.700;2024-02-04T11:09:39;16.20;46.60
63013;DHT22;62113;45.624;11.700;2024-02-04T11:12:06;16.30;46.70
63013;DHT22;62113;45.624;11.700;2024-02-04T11:14:35;16.40;46.70
63013;DHT22;62113;45.624;11.700;2024-02-04T11:20:12;16.40;45.90
63013;DHT22;62113;45.624;11.700;2024-02-04T11:23:12;16.40;46.20
63013;DHT22;62113;45.624;11.700;2024-02-04T11:25:50;16.30;45.80
63013;DHT22;62113;45.624;11.700;2024-02-04T11:28:18;16.20;45.50
63013;DHT22;62113;45.624;11.700;2024-02-04T11:30:45;16.10;45.50
63013;DHT22;62113;45.624;11.700;2024-02-04T11:33:12;15.90;45.70
63013;DHT22;62113;45.624;11.700;2024-02-04T11:35:38;15.90;46.20
63013;DHT22;62113;45.624;11.700;2024-02-04T11:38:04;15.80;46.70
63013;DHT22;62113;45.624;11.700;2024-02-04T11:40:37;15.70;46.90
63013;DHT22;62113;45.624;11.700;2024-02-04T11:43:06;15.70;46.80
63013;DHT22;62113;45.624;11.700;2024-02-04T11:45:32;15.60;47.10
63013;DHT22;62113;45.624;11.700;2024-02-04T11:48:02;15.50;47.10
63013;DHT22;62113;45.624;11.700;2024-02-04T11:50:28;15.40;47.40
63013;DHT22;62113;45.624;11.700;2024-02-04T11:53:11;15.40;47.90
63013;DHT22;62113;45.624;11.700;2024-02-04T11:55:39;15.40;48.00
63013;DHT22;62113;45.624;11.700;2024-02-04T11:58:06;15.40;48.30
63013;DHT22;62113;45.624;11.700;2024-02-04T12:00:35;15.30;48.20
63013;DHT22;62113;45.624;11.700;2024-02-04T12:03:05;15.40;48.30
63013;DHT22;62113;45.624;11.700;2024-02-04T12:05:35;15.40;48.40
63013;DHT22;62113;45.624;11.700;2024-02-04T12:08:05;15.50;48.20
63013;DHT22;62113;45.624;11.700;2024-02-04T12:10:32;15.50;48.20
63013;DHT22;62113;45.624;11.700;2024-02-04T12:13:06;15.50;47.90
63013;DHT22;62113;45.624;11.700;2024-02-04T12:15:35;15.50;47.90
63013;DHT22;62113;45.624;11.700;2024-02-04T12:18:11;15.50;47.90
63013;DHT22;62113;45.624;11.700;2024-02-04T12:20:37;15.50;48.10
63013;DHT22;62113;45.624;11.700;2024-02-04T12:23:04;15.50;48.40
63013;DHT22;62113;45.624;11.700;2024-02-04T12:25:30;15.50;48.40
63013;DHT22;62113;45.624;11.700;2024-02-04T12:28:00;15.50;48.40
63013;DHT22;62113;45.624;11.700;2024-02-04T12:30:28;15.50;48.40
63013;DHT22;62113;45.624;11.700;2024-02-04T12:32:57;15.50;48.60
63013;DHT22;62113;45.624;11.700;2024-02-04T12:35:27;15.60;48.80
63013;DHT22;62113;45.624;11.700;2024-02-04T12:37:57;15.60;48.70
63013;DHT22;62113;45.624;11.700;2024-02-04T12:40:23;15.50;48.40
63013;DHT22;62113;45.624;11.700;2024-02-04T12:42:59;15.50;48.60
63013;DHT22;62113;45.624;11.700;2024-02-04T12:45:27;15.40;48.90
63013;DHT22;62113;45.624;11.700;2024-02-04T12:47:57;15.40;49.00
63013;DHT22;62113;45.624;11.700;2024-02-04T12:50:24;15.30;49.20
63013;DHT22;62113;45.624;11.700;2024-02-04T12:53:09;15.30;49.10
63013;DHT22;62113;45.624;11.700;2024-02-04T12:55:37;15.30;49.30
63013;DHT22;62113;45.624;11.700;2024-02-04T12:58:11;15.20;49.50
63013;DHT22;62113;45.624;11.700;2024-02-04T13:00:42;15.20;49.60
63013;DHT22;62113;45.624;11.700;2024-02-04T13:03:08;15.20;49.70
63013;DHT22;62113;45.624;11.700;2024-02-04T13:05:34;15.20;49.90
63013;DHT22;62113;45.624;11.700;2024-02-04T13:08:02;15.20;49.80
63013;DHT22;62113;45.624;11.700;2024-02-04T13:10:31;15.20;49.70
63013;DHT22;62113;45.624;11.700;2024-02-04T13:13:07;15.20;49.60
63013;DHT22;62113;45.624;11.700;2024-02-04T13:18:05;15.10;49.60
63013;DHT22;62113;45.624;11.700;2024-02-04T13:20:30;15.10;49.60
63013;DHT22;62113;45.624;11.700;2024-02-04T13:22:56;15.00;50.00
63013;DHT22;62113;45.624;11.700;2024-02-04T13:25:23;15.00;50.00
63013;DHT22;62113;45.624;11.700;2024-02-04T13:27:49;15.00;50.00
63013;DHT22;62113;45.624;11.700;2024-02-04T13:30:16;15.00;50.10
63013;DHT22;62113;45.624;11.700;2024-02-04T13:32:42;15.00;50.30
63013;DHT22;62113;45.624;11.700;2024-02-04T13:35:09;15.00;50.20
63013;DHT22;62113;45.624;11.700;2024-02-04T13:37:43;14.90;50.20
63013;DHT22;62113;45.624;11.700;2024-02-04T13:40:19;14.90;50.30
63013;DHT22;62113;45.624;11.700;2024-02-04T13:42:45;14.90;50.50
63013;DHT22;62113;45.624;11.700;2024-02-04T13:45:12;15.00;50.50
63013;DHT22;62113;45.624;11.700;2024-02-04T13:47:40;15.00;50.30
63013;DHT22;62113;45.624;11.700;2024-02-04T13:50:07;14.90;50.20
63013;DHT22;62113;45.624;11.700;2024-02-04T13:52:34;14.90;50.30
63013;DHT22;62113;45.624;11.700;2024-02-04T13:55:00;14.90;50.40
63013;DHT22;62113;45.624;11.700;2024-02-04T13:57:25;14.90;50.60
63013;DHT22;62113;45.624;11.700;2024-02-04T13:59:51;14.90;50.50
63013;DHT22;62113;45.624;11.700;2024-02-04T14:02:18;14.90;50.50
63013;DHT22;62113;45.624;11.700;2024-02-04T14:04:43;14.90;50.20
63013;DHT22;62113;45.624;11.700;2024-02-04T14:07:09;14.90;50.20
63013;DHT22;62113;45.624;11.700;2024-02-04T14:09:35;14.80;50.00
63013;DHT22;62113;45.624;11.700;2024-02-04T14:12:02;14.80;50.20
63013;DHT22;62113;45.624;11.700;2024-02-04T14:14:29;14.80;50.40
63013;DHT22;62113;45.624;11.700;2024-02-04T14:16:55;14.90;50.30
63013;DHT22;62113;45.624;11.700;2024-02-04T14:19:20;14.80;50.10
63013;DHT22;62113;45.624;11.700;2024-02-04T14:21:46;14.80;50.10
63013;DHT22;62113;45.624;11.700;2024-02-04T14:24:12;14.80;49.70
63013;DHT22;62113;45.624;11.700;2024-02-04T14:26:38;14.70;49.90
63013;DHT22;62113;45.624;11.700;2024-02-04T14:29:04;14.70;50.00
63013;DHT22;62113;45.624;11.700;2024-02-04T14:31:29;14.80;50.30
63013;DHT22;62113;45.624;11.700;2024-02-04T14:33:55;14.80;50.40
63013;DHT22;62113;45.624;11.700;2024-02-04T14:36:21;14.80;50.20
63013;DHT22;62113;45.624;11.700;2024-02-04T14:38:47;14.80;50.30
63013;DHT22;62113;45.624;11.700;2024-02-04T14:41:12;14.80;50.30
63013;DHT22;62113;45.624;11.700;2024-02-04T14:43:38;14.80;50.40
63013;DHT22;62113;45.624;11.700;2024-02-04T14:46:04;14.70;50.30
63013;DHT22;62113;45.624;11.700;2024-02-04T14:48:30;14.70;50.30
63013;DHT22;62113;45.624;11.700;2024-02-04T14:50:56;14.70;50.40
63013;DHT22;62113;45.624;11.700;2024-02-04T14:53:25;14.70;50.50
63013;DHT22;62113;45.624;11.700;2024-02-04T14:55:51;14.70;50.50
63013;DHT22;62113;45.624;11.700;2024-02-04T14:58:17;14.70;50.50
63013;DHT22;62113;45.624;11.700;2024-02-04T15:00:43;14.70;50.50
63013;DHT22;62113;45.624;11.700;2024-02-04T15:03:09;14.70;50.50
63013;DHT22;62113;45.624;11.700;2024-02-04T15:05:35;14.70;50.70
63013;DHT22;62113;45.624;11.700;2024-02-04T15:08:00;14.60;50.80
63013;DHT22;62113;45.624;11.700;2024-02-04T15:10:26;14.60;51.00
63013;DHT22;62113;45.624;11.700;2024-02-04T15:12:52;14.60;50.90
63013;DHT22;62113;45.624;11.700;2024-02-04T15:15:19;14.60;50.90
63013;DHT22;62113;45.624;11.700;2024-02-04T15:17:45;14.60;50.90
63013;DHT22;62113;45.624;11.700;2024-02-04T15:20:11;14.50;51.30
63013;DHT22;62113;45.624;11.700;2024-02-04T15:22:40;14.50;51.40
63013;DHT22;62113;45.624;11.700;2024-02-04T15:25:06;14.40;51.50
63013;DHT22;62113;45.624;11.700;2024-02-04T15:27:32;14.40;51.50
63013;DHT22;62113;45.624;11.700;2024-02-04T15:29:59;14.30;51.50